createdAt,value
2022-12-25T00:03:56.772Z,79.25
2022-12-25T00:08:58.226Z,78.51
2022-12-25T00:13:59.528Z,78.16
2022-12-25T00:19:01.209Z,77.76
2022-12-25T00:24:03.449Z,77.97
2022-12-25T00:29:04.901Z,77.69
2022-12-25T00:34:06.249Z,77.31
2022-12-25T00:39:07.639Z,77.46
2022-12-25T00:44:11.209Z,77.68
2022-12-25T00:49:13.399Z,77.44
2022-12-25T00:54:14.915Z,77.55
2022-12-25T00:59:16.266Z,77.90
2022-12-25T01:04:17.606Z,77.66
2022-12-25T01:09:37.609Z,77.81
2022-12-25T01:14:38.942Z,77.71
2022-12-25T01:19:40.308Z,77.45
2022-12-25T01:24:45.389Z,77.64
2022-12-25T01:29:46.856Z,77.55
2022-12-25T01:34:53.731Z,77.60
2022-12-25T01:39:57.202Z,77.12
2022-12-25T01:45:44.289Z,77.43
2022-12-25T01:50:49.880Z,77.49
2022-12-25T01:55:55.069Z,77.53
2022-12-25T02:00:56.507Z,77.21
2022-12-25T02:05:59.220Z,77.38
2022-12-25T02:11:00.546Z,77.34
2022-12-25T02:16:13.625Z,77.53
2022-12-25T02:21:48.858Z,77.45
2022-12-25T02:26:59.222Z,77.57
2022-12-25T02:32:31.775Z,77.58
2022-12-25T02:37:42.018Z,77.30
2022-12-25T02:43:20.387Z,77.40
2022-12-25T02:48:42.250Z,78.29
2022-12-25T02:54:04.631Z,77.99
2022-12-25T02:59:26.601Z,77.76
2022-12-25T03:04:48.210Z,77.71
2022-12-25T03:10:15.483Z,77.87
2022-12-25T03:15:37.501Z,77.44
2022-12-25T03:20:57.806Z,77.86
2022-12-25T03:26:17.636Z,77.92
2022-12-25T03:31:33.565Z,77.67
2022-12-25T03:37:06.973Z,77.28
2022-12-25T03:42:27.648Z,77.34
2022-12-25T03:47:52.558Z,77.35
2022-12-25T03:53:14.455Z,77.83
2022-12-25T03:58:39.812Z,77.15
2022-12-25T04:03:59.697Z,77.35
2022-12-25T04:09:19.772Z,76.88
2022-12-25T04:14:39.771Z,76.80
2022-12-25T04:19:59.756Z,77.01
2022-12-25T04:25:39.460Z,76.67
2022-12-25T04:30:59.483Z,76.98
2022-12-25T04:36:09.826Z,76.72
2022-12-25T04:41:12.759Z,76.69
2022-12-25T04:46:14.120Z,76.76
2022-12-25T04:51:23.497Z,77.23
2022-12-25T04:56:24.922Z,76.85
2022-12-25T05:01:26.436Z,77.06
2022-12-25T05:06:27.985Z,76.82
2022-12-25T05:11:29.327Z,77.03
2022-12-25T05:16:30.773Z,76.60
2022-12-25T05:21:32.235Z,76.58
2022-12-25T05:26:33.544Z,76.71
2022-12-25T05:31:34.973Z,77.02
2022-12-25T05:36:36.424Z,76.65
2022-12-25T05:41:37.807Z,76.83
2022-12-25T05:46:39.252Z,76.65
2022-12-25T05:51:40.644Z,76.80
2022-12-25T05:56:42.175Z,76.73
2022-12-25T06:01:43.733Z,77.09
2022-12-25T06:06:45.136Z,76.94
2022-12-25T06:11:46.572Z,77.12
2022-12-25T06:16:52.121Z,77.05
2022-12-25T06:21:54.701Z,76.99
2022-12-25T06:26:56.092Z,76.82
2022-12-25T06:31:58.812Z,76.49
2022-12-25T06:37:00.230Z,76.93
2022-12-25T06:42:01.613Z,76.99
2022-12-25T06:47:02.991Z,76.58
2022-12-25T06:52:04.426Z,76.82
2022-12-25T06:57:05.755Z,77.03
2022-12-25T07:02:18.794Z,76.98
2022-12-25T07:07:21.408Z,76.79
2022-12-25T07:12:23.731Z,77.08
2022-12-25T07:17:25.172Z,76.75
2022-12-25T07:22:29.085Z,77.16
2022-12-25T07:27:30.572Z,77.18
2022-12-25T07:32:32.501Z,76.76
2022-12-25T07:37:34.010Z,77.08
2022-12-25T07:42:35.435Z,77.00
2022-12-25T07:47:40.015Z,76.65
2022-12-25T07:52:43.560Z,77.04
2022-12-25T07:57:45.452Z,76.50
2022-12-25T08:02:50.115Z,76.59
2022-12-25T08:07:57.658Z,76.48
2022-12-25T08:12:59.629Z,77.04
2022-12-25T08:18:01.221Z,76.70
2022-12-25T08:23:04.166Z,76.93
2022-12-25T08:28:05.856Z,76.71
2022-12-25T08:33:07.518Z,77.11
2022-12-25T08:38:09.002Z,76.95
2022-12-25T08:43:10.546Z,76.44
2022-12-25T08:48:12.101Z,76.81
2022-12-25T08:53:14.089Z,76.64
2022-12-25T08:58:16.607Z,76.38
2022-12-25T09:03:18.147Z,76.13
2022-12-25T09:08:20.208Z,76.39
2022-12-25T09:13:21.632Z,76.37
2022-12-25T09:18:25.651Z,76.51
2022-12-25T09:23:28.907Z,76.00
2022-12-25T09:28:30.952Z,76.33
2022-12-25T09:33:32.569Z,76.02
2022-12-25T09:38:34.764Z,76.12
2022-12-25T09:43:42.258Z,76.01
2022-12-25T09:48:47.995Z,76.32
2022-12-25T09:53:58.601Z,75.58
2022-12-25T09:59:03.165Z,76.19
2022-12-25T10:04:51.039Z,75.69
2022-12-25T10:10:36.725Z,76.28
2022-12-25T10:16:16.128Z,76.02
2022-12-25T10:21:18.899Z,75.69
2022-12-25T10:26:22.759Z,75.94
2022-12-25T10:31:27.975Z,75.59
2022-12-25T10:36:30.801Z,75.80
2022-12-25T10:41:53.941Z,75.18
2022-12-25T10:46:58.195Z,75.51
2022-12-25T10:52:00.303Z,75.46
2022-12-25T10:57:16.583Z,75.50
2022-12-25T11:02:25.125Z,75.45
2022-12-25T11:07:27.161Z,75.05
2022-12-25T11:12:32.863Z,75.01
2022-12-25T11:17:35.930Z,75.21
2022-12-25T11:22:37.573Z,75.00
2022-12-25T11:27:39.052Z,74.35
2022-12-25T11:32:52.380Z,74.37
2022-12-25T11:37:54.079Z,74.49
2022-12-25T11:43:22.133Z,74.28
2022-12-25T11:48:32.894Z,74.05
2022-12-25T11:53:49.213Z,73.91
2022-12-25T11:59:18.578Z,73.87
2022-12-25T12:04:52.216Z,73.77
2022-12-25T12:10:21.523Z,74.63
2022-12-25T12:15:43.555Z,74.56
2022-12-25T12:20:46.297Z,74.46
2022-12-25T12:25:48.385Z,74.50
2022-12-25T12:31:16.576Z,74.64
2022-12-25T12:36:29.223Z,74.70
2022-12-25T12:41:47.676Z,74.07
2022-12-25T12:46:57.212Z,73.44
2022-12-25T12:52:24.845Z,73.32
2022-12-25T12:57:29.815Z,73.45
2022-12-25T13:02:43.535Z,73.28
2022-12-25T13:07:53.981Z,73.23
2022-12-25T13:13:00.646Z,73.62
2022-12-25T13:18:06.190Z,73.28
2022-12-25T13:23:35.256Z,73.38
2022-12-25T13:28:37.314Z,73.13
2022-12-25T13:33:40.911Z,73.09
2022-12-25T13:38:47.030Z,73.07
2022-12-25T13:43:49.277Z,73.07
2022-12-25T13:49:00.216Z,73.00
2022-12-25T13:54:06.755Z,72.90
2022-12-25T13:59:16.163Z,72.96
2022-12-25T14:04:23.924Z,72.74
2022-12-25T14:09:25.765Z,72.73
2022-12-25T14:14:27.643Z,72.40
2022-12-25T14:19:34.207Z,72.75
2022-12-25T14:24:35.840Z,73.01
2022-12-25T14:29:40.253Z,73.28
2022-12-25T14:34:44.172Z,73.36
2022-12-25T14:39:57.282Z,73.00
2022-12-25T14:45:26.448Z,73.76
2022-12-25T14:50:32.233Z,73.63
2022-12-25T14:55:37.252Z,73.19
2022-12-25T15:00:39.773Z,73.07
2022-12-25T15:05:41.312Z,73.09
2022-12-25T15:11:01.031Z,73.03
2022-12-25T15:16:14.356Z,72.81
2022-12-25T15:21:21.919Z,72.81
2022-12-25T15:26:23.747Z,73.58
2022-12-25T15:31:33.789Z,73.46
2022-12-25T15:36:35.445Z,73.08
2022-12-25T15:41:56.750Z,73.13
2022-12-25T15:47:01.726Z,73.08
2022-12-25T15:52:04.505Z,73.19
2022-12-25T15:57:14.265Z,73.49
2022-12-25T16:02:18.977Z,73.58
2022-12-25T16:07:23.529Z,73.62
2022-12-25T16:12:25.514Z,73.46
2022-12-25T16:17:27.285Z,73.36
2022-12-25T16:22:28.937Z,73.72
2022-12-25T16:27:30.453Z,73.57
2022-12-25T16:32:31.919Z,73.84
2022-12-25T16:37:34.941Z,73.48
2022-12-25T16:42:37.402Z,73.92
2022-12-25T16:47:38.903Z,74.07
2022-12-25T16:52:40.583Z,74.00
2022-12-25T16:57:42.108Z,74.28
2022-12-25T17:02:43.994Z,74.05
2022-12-25T17:07:47.000Z,74.13
2022-12-25T17:12:48.522Z,73.97
2022-12-25T17:17:49.969Z,74.06
2022-12-25T17:22:51.616Z,74.45
2022-12-25T17:27:53.285Z,74.31
2022-12-25T17:32:55.219Z,74.60
2022-12-25T17:37:56.769Z,74.65
2022-12-25T17:42:58.312Z,74.19
2022-12-25T17:47:59.856Z,75.04
2022-12-25T17:53:03.488Z,75.00
2022-12-25T17:58:05.259Z,75.11
2022-12-25T18:03:11.547Z,74.73
2022-12-25T18:08:14.619Z,74.82
2022-12-25T18:13:16.150Z,75.36
2022-12-25T18:18:17.737Z,74.70
2022-12-25T18:23:20.263Z,74.92
2022-12-25T18:28:21.784Z,74.70
2022-12-25T18:33:23.288Z,74.46
2022-12-25T18:38:24.802Z,74.56
2022-12-25T18:43:53.960Z,75.08
2022-12-25T18:48:55.240Z,74.84
2022-12-25T18:53:57.258Z,74.77
2022-12-25T18:59:00.522Z,75.03
2022-12-25T19:04:05.706Z,74.93
2022-12-25T19:09:10.855Z,75.52
2022-12-25T19:14:12.531Z,76.04
2022-12-25T19:19:14.730Z,75.92
2022-12-25T19:24:16.197Z,75.68
2022-12-25T19:29:17.658Z,75.89
2022-12-25T19:34:19.173Z,75.85
2022-12-25T19:39:20.704Z,75.96
2022-12-25T19:44:22.206Z,76.25
2022-12-25T19:49:24.093Z,76.55
2022-12-25T19:54:25.812Z,76.47
2022-12-25T19:59:27.396Z,76.29
2022-12-25T20:04:28.946Z,76.62
2022-12-25T20:09:31.174Z,76.21
2022-12-25T20:14:32.691Z,76.38
2022-12-25T20:19:34.532Z,76.03
2022-12-25T20:24:36.261Z,76.33
2022-12-25T20:29:37.888Z,76.21
2022-12-25T20:34:39.423Z,76.07
2022-12-25T20:39:40.933Z,76.16
2022-12-25T20:44:44.913Z,75.84
2022-12-25T20:49:47.503Z,76.25
2022-12-25T20:54:49.489Z,76.04
2022-12-25T20:59:54.560Z,75.88
2022-12-25T21:04:56.018Z,76.13
2022-12-25T21:09:57.808Z,76.17
2022-12-25T21:14:59.387Z,75.78
2022-12-25T21:20:00.934Z,75.69
2022-12-25T21:25:02.593Z,75.78
2022-12-25T21:30:14.913Z,75.64
2022-12-25T21:35:17.207Z,75.92
2022-12-25T21:40:18.668Z,75.62
2022-12-25T21:45:20.260Z,75.81
2022-12-25T21:50:40.778Z,75.40
2022-12-25T21:55:43.290Z,75.23
2022-12-25T22:00:44.885Z,75.34
2022-12-25T22:06:08.003Z,74.77
2022-12-25T22:11:32.520Z,74.83
2022-12-25T22:16:52.652Z,74.48
2022-12-25T22:27:11.546Z,74.44
2022-12-25T22:32:15.014Z,73.55
2022-12-25T22:37:18.304Z,73.60
2022-12-25T22:42:19.967Z,73.17
2022-12-25T22:47:25.189Z,73.30
2022-12-25T22:57:43.192Z,73.19
2022-12-25T23:02:52.591Z,73.06
2022-12-25T23:07:54.354Z,73.05
2022-12-25T23:13:14.263Z,72.96
2022-12-25T23:18:41.347Z,72.91
2022-12-25T23:24:03.093Z,72.36
2022-12-25T23:29:23.176Z,72.82
2022-12-25T23:34:24.925Z,72.71
2022-12-25T23:39:27.705Z,72.44
2022-12-25T23:49:53.318Z,72.65
2022-12-25T23:54:56.062Z,72.18
2022-12-25T23:59:57.670Z,71.94
